sensor_id;sensor_type;location;lat;lon;timestamp;P1;durP1;ratioP1;P2;durP2;ratioP2
70942;SDS011;59154;51.970;5.650;2023-02-28T00:00:03;6.0;;;3.1;;
70942;SDS011;59154;51.970;5.650;2023-02-28T00:05:02;4.5;;;2.6;;
70942;SDS011;59154;51.970;5.650;2023-02-28T00:10:03;5.0;;;2.7;;
70942;SDS011;59154;51.970;5.650;2023-02-28T00:15:05;3.8;;;2.4;;
70942;SDS011;59154;51.970;5.650;2023-02-28T00:20:04;5.4;;;2.7;;
70942;SDS011;59154;51.970;5.650;2023-02-28T00:25:02;3.6;;;2.4;;
70942;SDS011;59154;51.970;5.650;2023-02-28T00:30:03;3.6;;;2.3;;
70942;SDS011;59154;51.970;5.650;2023-02-28T00:35:02;3.9;;;2.8;;
70942;SDS011;59154;51.970;5.650;2023-02-28T00:40:03;3.5;;;2.4;;
70942;SDS011;59154;51.970;5.650;2023-02-28T00:45:02;4.0;;;2.4;;
70942;SDS011;59154;51.970;5.650;2023-02-28T00:50:02;4.3;;;2.5;;
70942;SDS011;59154;51.970;5.650;2023-02-28T00:55:03;3.7;;;2.6;;
70942;SDS011;59154;51.970;5.650;2023-02-28T01:00:03;5.9;;;2.9;;
70942;SDS011;59154;51.970;5.650;2023-02-28T01:05:02;6.9;;;2.7;;
70942;SDS011;59154;51.970;5.650;2023-02-28T01:10:03;4.0;;;2.5;;
70942;SDS011;59154;51.970;5.650;2023-02-28T01:15:02;4.9;;;2.6;;
70942;SDS011;59154;51.970;5.650;2023-02-28T01:20:03;3.9;;;3.0;;
70942;SDS011;59154;51.970;5.650;2023-02-28T01:25:02;4.6;;;3.0;;
70942;SDS011;59154;51.970;5.650;2023-02-28T01:30:02;8.3;;;3.4;;
70942;SDS011;59154;51.970;5.650;2023-02-28T01:35:02;5.8;;;3.0;;
70942;SDS011;59154;51.970;5.650;2023-02-28T01:40:03;4.9;;;3.2;;
70942;SDS011;59154;51.970;5.650;2023-02-28T01:45:08;4.4;;;3.1;;
70942;SDS011;59154;51.970;5.650;2023-02-28T01:50:04;4.9;;;3.4;;
70942;SDS011;59154;51.970;5.650;2023-02-28T01:55:02;6.1;;;3.5;;
70942;SDS011;59154;51.970;5.650;2023-02-28T02:00:06;4.4;;;2.8;;
70942;SDS011;59154;51.970;5.650;2023-02-28T02:05:03;4.0;;;2.9;;
70942;SDS011;59154;51.970;5.650;2023-02-28T02:10:04;6.1;;;3.3;;
70942;SDS011;59154;51.970;5.650;2023-02-28T02:15:03;5.3;;;3.0;;
70942;SDS011;59154;51.970;5.650;2023-02-28T02:20:39;5.4;;;3.0;;
70942;SDS011;59154;51.970;5.650;2023-02-28T02:25:07;5.2;;;2.7;;
70942;SDS011;59154;51.970;5.650;2023-02-28T02:30:18;5.1;;;3.4;;
70942;SDS011;59154;51.970;5.650;2023-02-28T02:35:05;4.7;;;2.9;;
70942;SDS011;59154;51.970;5.650;2023-02-28T02:40:05;4.8;;;2.9;;
70942;SDS011;59154;51.970;5.650;2023-02-28T02:45:03;4.2;;;2.8;;
70942;SDS011;59154;51.970;5.650;2023-02-28T02:50:03;4.4;;;3.1;;
70942;SDS011;59154;51.970;5.650;2023-02-28T02:55:03;7.2;;;2.9;;
70942;SDS011;59154;51.970;5.650;2023-02-28T03:00:03;6.4;;;3.1;;
70942;SDS011;59154;51.970;5.650;2023-02-28T03:05:03;5.5;;;3.3;;
70942;SDS011;59154;51.970;5.650;2023-02-28T03:10:25;3.9;;;2.7;;
70942;SDS011;59154;51.970;5.650;2023-02-28T03:15:05;4.3;;;2.7;;
70942;SDS011;59154;51.970;5.650;2023-02-28T03:20:04;4.3;;;2.8;;
70942;SDS011;59154;51.970;5.650;2023-02-28T03:25:05;7.0;;;3.1;;
70942;SDS011;59154;51.970;5.650;2023-02-28T03:30:04;4.8;;;2.8;;
70942;SDS011;59154;51.970;5.650;2023-02-28T03:35:05;5.5;;;3.1;;
70942;SDS011;59154;51.970;5.650;2023-02-28T03:40:03;6.2;;;2.8;;
70942;SDS011;59154;51.970;5.650;2023-02-28T03:45:03;6.4;;;3.5;;
70942;SDS011;59154;51.970;5.650;2023-02-28T03:50:04;5.8;;;3.0;;
70942;SDS011;59154;51.970;5.650;2023-02-28T03:55:03;4.4;;;2.7;;
70942;SDS011;59154;51.970;5.650;2023-02-28T04:00:04;5.1;;;2.7;;
70942;SDS011;59154;51.970;5.650;2023-02-28T04:05:02;3.6;;;2.5;;
70942;SDS011;59154;51.970;5.650;2023-02-28T04:10:04;2.2;;;1.5;;
70942;SDS011;59154;51.970;5.650;2023-02-28T04:15:02;3.3;;;1.9;;
70942;SDS011;59154;51.970;5.650;2023-02-28T04:20:03;3.8;;;1.9;;
70942;SDS011;59154;51.970;5.650;2023-02-28T04:25:02;3.3;;;2.1;;
70942;SDS011;59154;51.970;5.650;2023-02-28T04:30:07;3.1;;;2.0;;
70942;SDS011;59154;51.970;5.650;2023-02-28T04:35:02;2.4;;;1.8;;
70942;SDS011;59154;51.970;5.650;2023-02-28T04:40:03;1.9;;;1.6;;
70942;SDS011;59154;51.970;5.650;2023-02-28T04:45:03;3.1;;;1.9;;
70942;SDS011;59154;51.970;5.650;2023-02-28T04:50:03;2.4;;;1.6;;
70942;SDS011;59154;51.970;5.650;2023-02-28T04:55:03;2.8;;;1.8;;
70942;SDS011;59154;51.970;5.650;2023-02-28T05:00:03;3.8;;;1.8;;
70942;SDS011;59154;51.970;5.650;2023-02-28T05:05:03;2.5;;;1.7;;
70942;SDS011;59154;51.970;5.650;2023-02-28T05:10:03;3.6;;;2.6;;
70942;SDS011;59154;51.970;5.650;2023-02-28T05:15:02;3.4;;;1.9;;
70942;SDS011;59154;51.970;5.650;2023-02-28T05:20:03;2.9;;;1.9;;
70942;SDS011;59154;51.970;5.650;2023-02-28T05:25:02;3.4;;;2.0;;
70942;SDS011;59154;51.970;5.650;2023-02-28T05:30:03;2.8;;;1.7;;
70942;SDS011;59154;51.970;5.650;2023-02-28T05:35:02;5.2;;;2.4;;
70942;SDS011;59154;51.970;5.650;2023-02-28T05:40:02;4.6;;;2.0;;
70942;SDS011;59154;51.970;5.650;2023-02-28T05:45:02;2.8;;;2.0;;
70942;SDS011;59154;51.970;5.650;2023-02-28T05:50:03;3.8;;;2.1;;
70942;SDS011;59154;51.970;5.650;2023-02-28T05:55:02;2.5;;;1.8;;
70942;SDS011;59154;51.970;5.650;2023-02-28T06:00:03;3.5;;;2.1;;
70942;SDS011;59154;51.970;5.650;2023-02-28T06:05:02;2.7;;;1.5;;
70942;SDS011;59154;51.970;5.650;2023-02-28T06:10:03;5.8;;;2.0;;
70942;SDS011;59154;51.970;5.650;2023-02-28T06:15:02;7.4;;;2.9;;
70942;SDS011;59154;51.970;5.650;2023-02-28T06:20:03;4.8;;;2.8;;
70942;SDS011;59154;51.970;5.650;2023-02-28T06:25:02;4.2;;;2.1;;
70942;SDS011;59154;51.970;5.650;2023-02-28T06:30:03;5.0;;;2.0;;
70942;SDS011;59154;51.970;5.650;2023-02-28T06:35:02;5.2;;;2.3;;
70942;SDS011;59154;51.970;5.650;2023-02-28T06:40:03;3.6;;;2.1;;
70942;SDS011;59154;51.970;5.650;2023-02-28T06:45:02;3.6;;;2.2;;
70942;SDS011;59154;51.970;5.650;2023-02-28T06:50:02;3.8;;;2.1;;
70942;SDS011;59154;51.970;5.650;2023-02-28T06:55:02;4.3;;;2.2;;
70942;SDS011;59154;51.970;5.650;2023-02-28T07:00:04;2.9;;;2.0;;
70942;SDS011;59154;51.970;5.650;2023-02-28T07:05:02;3.2;;;2.2;;
70942;SDS011;59154;51.970;5.650;2023-02-28T07:10:03;5.4;;;2.6;;
70942;SDS011;59154;51.970;5.650;2023-02-28T07:15:02;5.1;;;2.0;;
70942;SDS011;59154;51.970;5.650;2023-02-28T07:20:03;3.2;;;1.7;;
70942;SDS011;59154;51.970;5.650;2023-02-28T07:25:02;5.9;;;2.7;;
70942;SDS011;59154;51.970;5.650;2023-02-28T07:30:02;5.0;;;2.7;;
70942;SDS011;59154;51.970;5.650;2023-02-28T07:35:03;5.2;;;2.2;;
70942;SDS011;59154;51.970;5.650;2023-02-28T07:40:03;10.0;;;3.4;;
70942;SDS011;59154;51.970;5.650;2023-02-28T07:45:02;5.4;;;2.6;;
70942;SDS011;59154;51.970;5.650;2023-02-28T07:50:02;4.4;;;2.4;;
70942;SDS011;59154;51.970;5.650;2023-02-28T07:55:03;5.2;;;2.7;;
70942;SDS011;59154;51.970;5.650;2023-02-28T08:00:03;3.4;;;2.2;;
70942;SDS011;59154;51.970;5.650;2023-02-28T08:05:02;3.8;;;2.4;;
70942;SDS011;59154;51.970;5.650;2023-02-28T08:10:02;3.3;;;1.9;;
70942;SDS011;59154;51.970;5.650;2023-02-28T08:15:02;2.1;;;1.4;;
70942;SDS011;59154;51.970;5.650;2023-02-28T08:20:03;2.9;;;1.8;;
70942;SDS011;59154;51.970;5.650;2023-02-28T08:25:02;2.2;;;1.4;;
70942;SDS011;59154;51.970;5.650;2023-02-28T08:30:03;2.6;;;1.7;;
70942;SDS011;59154;51.970;5.650;2023-02-28T08:35:03;2.2;;;1.3;;
70942;SDS011;59154;51.970;5.650;2023-02-28T08:40:03;1.7;;;1.5;;
70942;SDS011;59154;51.970;5.650;2023-02-28T08:45:02;2.0;;;1.5;;
70942;SDS011;59154;51.970;5.650;2023-02-28T08:50:03;1.8;;;1.4;;
70942;SDS011;59154;51.970;5.650;2023-02-28T08:55:02;2.0;;;1.6;;
70942;SDS011;59154;51.970;5.650;2023-02-28T09:00:04;2.3;;;1.4;;
70942;SDS011;59154;51.970;5.650;2023-02-28T09:05:03;3.8;;;1.8;;
70942;SDS011;59154;51.970;5.650;2023-02-28T09:10:02;2.6;;;1.5;;
70942;SDS011;59154;51.970;5.650;2023-02-28T09:15:03;3.7;;;2.3;;
70942;SDS011;59154;51.970;5.650;2023-02-28T09:20:03;2.5;;;1.6;;
70942;SDS011;59154;51.970;5.650;2023-02-28T09:25:02;2.7;;;1.4;;
70942;SDS011;59154;51.970;5.650;2023-02-28T09:30:03;1.9;;;1.2;;
70942;SDS011;59154;51.970;5.650;2023-02-28T09:35:02;2.0;;;1.4;;
70942;SDS011;59154;51.970;5.650;2023-02-28T09:40:03;2.7;;;1.8;;
70942;SDS011;59154;51.970;5.650;2023-02-28T09:45:05;1.9;;;1.4;;
70942;SDS011;59154;51.970;5.650;2023-02-28T09:50:04;2.2;;;1.5;;
70942;SDS011;59154;51.970;5.650;2023-02-28T09:55:08;2.8;;;1.6;;
70942;SDS011;59154;51.970;5.650;2023-02-28T10:00:06;2.6;;;1.5;;
70942;SDS011;59154;51.970;5.650;2023-02-28T10:05:03;2.0;;;1.5;;
70942;SDS011;59154;51.970;5.650;2023-02-28T10:10:04;2.4;;;1.5;;
70942;SDS011;59154;51.970;5.650;2023-02-28T10:15:02;2.3;;;1.6;;
70942;SDS011;59154;51.970;5.650;2023-02-28T10:20:05;2.3;;;1.5;;
70942;SDS011;59154;51.970;5.650;2023-02-28T10:25:05;2.3;;;1.6;;
70942;SDS011;59154;51.970;5.650;2023-02-28T10:30:03;1.8;;;1.4;;
70942;SDS011;59154;51.970;5.650;2023-02-28T10:35:09;3.5;;;1.5;;
70942;SDS011;59154;51.970;5.650;2023-02-28T10:40:03;1.8;;;1.4;;
70942;SDS011;59154;51.970;5.650;2023-02-28T10:45:07;2.9;;;1.8;;
70942;SDS011;59154;51.970;5.650;2023-02-28T10:50:03;2.9;;;1.7;;
70942;SDS011;59154;51.970;5.650;2023-02-28T10:55:20;2.8;;;1.5;;
70942;SDS011;59154;51.970;5.650;2023-02-28T11:00:08;4.6;;;1.5;;
70942;SDS011;59154;51.970;5.650;2023-02-28T11:05:03;2.5;;;1.7;;
70942;SDS011;59154;51.970;5.650;2023-02-28T11:10:02;2.6;;;1.7;;
70942;SDS011;59154;51.970;5.650;2023-02-28T11:15:03;3.3;;;2.0;;
70942;SDS011;59154;51.970;5.650;2023-02-28T11:20:04;4.5;;;2.0;;
70942;SDS011;59154;51.970;5.650;2023-02-28T11:25:03;2.3;;;1.9;;
70942;SDS011;59154;51.970;5.650;2023-02-28T11:30:02;2.1;;;1.4;;
70942;SDS011;59154;51.970;5.650;2023-02-28T11:35:04;3.4;;;1.8;;
70942;SDS011;59154;51.970;5.650;2023-02-28T11:40:04;2.8;;;1.7;;
70942;SDS011;59154;51.970;5.650;2023-02-28T11:45:04;4.4;;;1.9;;
70942;SDS011;59154;51.970;5.650;2023-02-28T11:50:07;6.3;;;3.1;;
70942;SDS011;59154;51.970;5.650;2023-02-28T11:55:07;3.9;;;2.3;;
70942;SDS011;59154;51.970;5.650;2023-02-28T12:00:06;2.0;;;1.5;;
70942;SDS011;59154;51.970;5.650;2023-02-28T12:05:10;3.4;;;2.2;;
70942;SDS011;59154;51.970;5.650;2023-02-28T12:10:05;4.8;;;1.8;;
70942;SDS011;59154;51.970;5.650;2023-02-28T12:15:05;3.3;;;1.7;;
70942;SDS011;59154;51.970;5.650;2023-02-28T12:20:06;2.4;;;1.7;;
70942;SDS011;59154;51.970;5.650;2023-02-28T12:25:13;2.6;;;1.6;;
70942;SDS011;59154;51.970;5.650;2023-02-28T12:30:03;3.3;;;1.9;;
70942;SDS011;59154;51.970;5.650;2023-02-28T12:35:03;3.4;;;2.0;;
70942;SDS011;59154;51.970;5.650;2023-02-28T12:40:04;2.5;;;1.9;;
70942;SDS011;59154;51.970;5.650;2023-02-28T12:45:04;3.3;;;1.6;;
70942;SDS011;59154;51.970;5.650;2023-02-28T12:50:05;2.4;;;1.8;;
70942;SDS011;59154;51.970;5.650;2023-02-28T12:55:03;2.1;;;1.7;;
70942;SDS011;59154;51.970;5.650;2023-02-28T13:00:03;2.5;;;2.0;;
70942;SDS011;59154;51.970;5.650;2023-02-28T13:10:03;3.5;;;2.4;;
70942;SDS011;59154;51.970;5.650;2023-02-28T13:15:05;5.8;;;3.3;;
70942;SDS011;59154;51.970;5.650;2023-02-28T13:20:03;2.5;;;1.8;;
70942;SDS011;59154;51.970;5.650;2023-02-28T13:25:02;2.6;;;1.8;;
70942;SDS011;59154;51.970;5.650;2023-02-28T13:30:50;3.7;;;2.1;;
70942;SDS011;59154;51.970;5.650;2023-02-28T13:35:36;4.4;;;2.6;;
70942;SDS011;59154;51.970;5.650;2023-02-28T13:40:26;5.1;;;2.8;;
70942;SDS011;59154;51.970;5.650;2023-02-28T13:45:34;4.0;;;2.0;;
70942;SDS011;59154;51.970;5.650;2023-02-28T13:50:36;2.8;;;1.8;;
70942;SDS011;59154;51.970;5.650;2023-02-28T13:55:11;3.1;;;2.0;;
70942;SDS011;59154;51.970;5.650;2023-02-28T14:00:07;1.8;;;1.5;;
70942;SDS011;59154;51.970;5.650;2023-02-28T14:05:04;2.0;;;1.6;;
70942;SDS011;59154;51.970;5.650;2023-02-28T14:10:03;3.1;;;1.9;;
70942;SDS011;59154;51.970;5.650;2023-02-28T14:15:03;2.1;;;1.7;;
70942;SDS011;59154;51.970;5.650;2023-02-28T14:20:03;2.7;;;1.8;;
70942;SDS011;59154;51.970;5.650;2023-02-28T14:25:08;3.2;;;1.6;;
70942;SDS011;59154;51.970;5.650;2023-02-28T14:30:07;3.4;;;2.0;;
70942;SDS011;59154;51.970;5.650;2023-02-28T14:35:05;7.8;;;2.9;;
70942;SDS011;59154;51.970;5.650;2023-02-28T14:40:03;2.3;;;1.5;;
70942;SDS011;59154;51.970;5.650;2023-02-28T14:45:02;3.6;;;1.9;;
70942;SDS011;59154;51.970;5.650;2023-02-28T14:50:03;2.1;;;1.6;;
70942;SDS011;59154;51.970;5.650;2023-02-28T14:55:03;2.8;;;1.8;;
70942;SDS011;59154;51.970;5.650;2023-02-28T15:00:04;3.7;;;2.2;;
70942;SDS011;59154;51.970;5.650;2023-02-28T15:05:15;3.2;;;1.3;;
70942;SDS011;59154;51.970;5.650;2023-02-28T15:10:11;3.4;;;1.7;;
70942;SDS011;59154;51.970;5.650;2023-02-28T15:15:02;2.0;;;1.6;;
70942;SDS011;59154;51.970;5.650;2023-02-28T15:20:03;3.5;;;1.8;;
70942;SDS011;59154;51.970;5.650;2023-02-28T15:25:02;2.8;;;1.7;;
70942;SDS011;59154;51.970;5.650;2023-02-28T15:30:04;2.9;;;1.5;;
70942;SDS011;59154;51.970;5.650;2023-02-28T15:35:17;1.7;;;1.4;;
70942;SDS011;59154;51.970;5.650;2023-02-28T15:40:07;2.4;;;1.5;;
70942;SDS011;59154;51.970;5.650;2023-02-28T15:45:02;2.2;;;1.7;;
70942;SDS011;59154;51.970;5.650;2023-02-28T15:50:03;3.5;;;1.6;;
70942;SDS011;59154;51.970;5.650;2023-02-28T15:55:07;2.4;;;1.6;;
70942;SDS011;59154;51.970;5.650;2023-02-28T16:00:04;2.3;;;1.5;;
70942;SDS011;59154;51.970;5.650;2023-02-28T16:05:16;2.6;;;1.7;;
70942;SDS011;59154;51.970;5.650;2023-02-28T16:10:03;4.2;;;1.6;;
70942;SDS011;59154;51.970;5.650;2023-02-28T16:15:05;3.2;;;1.9;;
70942;SDS011;59154;51.970;5.650;2023-02-28T16:20:05;5.3;;;1.9;;
70942;SDS011;59154;51.970;5.650;2023-02-28T16:25:02;2.6;;;1.6;;
70942;SDS011;59154;51.970;5.650;2023-02-28T16:30:04;2.3;;;1.5;;
70942;SDS011;59154;51.970;5.650;2023-02-28T16:35:03;2.6;;;1.7;;
70942;SDS011;59154;51.970;5.650;2023-02-28T16:40:03;3.1;;;1.7;;
70942;SDS011;59154;51.970;5.650;2023-02-28T16:45:02;2.6;;;1.5;;
70942;SDS011;59154;51.970;5.650;2023-02-28T16:50:05;4.3;;;1.9;;
70942;SDS011;59154;51.970;5.650;2023-02-28T16:55:02;2.8;;;1.7;;
70942;SDS011;59154;51.970;5.650;2023-02-28T17:00:03;2.4;;;1.8;;
70942;SDS011;59154;51.970;5.650;2023-02-28T17:05:02;2.7;;;1.8;;
70942;SDS011;59154;51.970;5.650;2023-02-28T17:10:02;2.9;;;1.7;;
70942;SDS011;59154;51.970;5.650;2023-02-28T17:15:03;3.2;;;1.9;;
70942;SDS011;59154;51.970;5.650;2023-02-28T17:20:03;3.3;;;1.8;;
70942;SDS011;59154;51.970;5.650;2023-02-28T17:25:02;3.6;;;1.7;;
70942;SDS011;59154;51.970;5.650;2023-02-28T17:30:02;2.9;;;2.1;;
70942;SDS011;59154;51.970;5.650;2023-02-28T17:35:02;2.3;;;1.6;;
70942;SDS011;59154;51.970;5.650;2023-02-28T17:40:03;2.6;;;1.8;;
70942;SDS011;59154;51.970;5.650;2023-02-28T17:45:02;3.0;;;1.6;;
70942;SDS011;59154;51.970;5.650;2023-02-28T17:50:03;3.0;;;2.0;;
70942;SDS011;59154;51.970;5.650;2023-02-28T17:55:03;2.8;;;1.8;;
70942;SDS011;59154;51.970;5.650;2023-02-28T18:00:03;2.2;;;1.6;;
70942;SDS011;59154;51.970;5.650;2023-02-28T18:05:03;3.0;;;1.8;;
70942;SDS011;59154;51.970;5.650;2023-02-28T18:10:03;3.8;;;1.8;;
70942;SDS011;59154;51.970;5.650;2023-02-28T18:15:03;2.5;;;1.9;;
70942;SDS011;59154;51.970;5.650;2023-02-28T18:20:03;2.7;;;1.8;;
70942;SDS011;59154;51.970;5.650;2023-02-28T18:25:03;2.2;;;1.8;;
70942;SDS011;59154;51.970;5.650;2023-02-28T18:30:03;3.6;;;2.3;;
70942;SDS011;59154;51.970;5.650;2023-02-28T18:35:02;3.1;;;2.0;;
70942;SDS011;59154;51.970;5.650;2023-02-28T18:40:03;2.7;;;1.9;;
70942;SDS011;59154;51.970;5.650;2023-02-28T18:45:02;2.5;;;1.9;;
70942;SDS011;59154;51.970;5.650;2023-02-28T18:50:02;4.4;;;2.0;;
70942;SDS011;59154;51.970;5.650;2023-02-28T18:55:02;3.1;;;2.5;;
70942;SDS011;59154;51.970;5.650;2023-02-28T19:00:03;3.2;;;2.5;;
70942;SDS011;59154;51.970;5.650;2023-02-28T19:05:03;4.7;;;2.7;;
70942;SDS011;59154;51.970;5.650;2023-02-28T19:10:03;5.3;;;2.7;;
70942;SDS011;59154;51.970;5.650;2023-02-28T19:15:03;3.2;;;2.1;;
70942;SDS011;59154;51.970;5.650;2023-02-28T19:20:03;3.1;;;2.1;;
70942;SDS011;59154;51.970;5.650;2023-02-28T19:25:02;3.2;;;2.1;;
70942;SDS011;59154;51.970;5.650;2023-02-28T19:30:03;2.8;;;1.9;;
70942;SDS011;59154;51.970;5.650;2023-02-28T19:35:02;2.3;;;2.0;;
70942;SDS011;59154;51.970;5.650;2023-02-28T19:40:03;3.1;;;2.0;;
70942;SDS011;59154;51.970;5.650;2023-02-28T19:45:03;5.3;;;2.6;;
70942;SDS011;59154;51.970;5.650;2023-02-28T19:50:02;3.2;;;2.4;;
70942;SDS011;59154;51.970;5.650;2023-02-28T19:55:02;3.5;;;2.4;;
70942;SDS011;59154;51.970;5.650;2023-02-28T20:00:03;4.0;;;2.7;;
70942;SDS011;59154;51.970;5.650;2023-02-28T20:05:02;5.9;;;2.8;;
70942;SDS011;59154;51.970;5.650;2023-02-28T20:10:02;4.9;;;2.3;;
70942;SDS011;59154;51.970;5.650;2023-02-28T20:15:02;4.8;;;2.6;;
70942;SDS011;59154;51.970;5.650;2023-02-28T20:20:03;4.5;;;3.4;;
70942;SDS011;59154;51.970;5.650;2023-02-28T20:25:03;5.6;;;4.0;;
70942;SDS011;59154;51.970;5.650;2023-02-28T20:30:03;4.8;;;2.9;;
70942;SDS011;59154;51.970;5.650;2023-02-28T20:35:02;3.7;;;3.0;;
70942;SDS011;59154;51.970;5.650;2023-02-28T20:40:03;6.7;;;3.4;;
70942;SDS011;59154;51.970;5.650;2023-02-28T20:45:02;5.5;;;3.7;;
70942;SDS011;59154;51.970;5.650;2023-02-28T20:50:03;7.6;;;3.5;;
70942;SDS011;59154;51.970;5.650;2023-02-28T20:55:03;5.7;;;4.0;;
70942;SDS011;59154;51.970;5.650;2023-02-28T21:00:03;4.8;;;3.7;;
70942;SDS011;59154;51.970;5.650;2023-02-28T21:05:02;4.5;;;3.5;;
70942;SDS011;59154;51.970;5.650;2023-02-28T21:10:03;5.5;;;4.1;;
70942;SDS011;59154;51.970;5.650;2023-02-28T21:15:02;6.7;;;3.5;;
70942;SDS011;59154;51.970;5.650;2023-02-28T21:20:03;4.8;;;3.4;;
70942;SDS011;59154;51.970;5.650;2023-02-28T21:25:02;5.5;;;3.1;;
70942;SDS011;59154;51.970;5.650;2023-02-28T21:30:03;5.7;;;3.4;;
70942;SDS011;59154;51.970;5.650;2023-02-28T21:35:02;4.9;;;3.4;;
70942;SDS011;59154;51.970;5.650;2023-02-28T21:40:03;6.0;;;4.1;;
70942;SDS011;59154;51.970;5.650;2023-02-28T21:45:02;5.5;;;4.1;;
70942;SDS011;59154;51.970;5.650;2023-02-28T21:50:03;5.4;;;4.1;;
70942;SDS011;59154;51.970;5.650;2023-02-28T21:55:02;4.9;;;3.5;;
70942;SDS011;59154;51.970;5.650;2023-02-28T22:00:03;6.3;;;4.2;;
70942;SDS011;59154;51.970;5.650;2023-02-28T22:05:02;6.1;;;3.6;;
70942;SDS011;59154;51.970;5.650;2023-02-28T22:10:03;3.4;;;2.8;;
70942;SDS011;59154;51.970;5.650;2023-02-28T22:15:02;4.8;;;3.3;;
70942;SDS011;59154;51.970;5.650;2023-02-28T22:20:03;5.5;;;3.4;;
70942;SDS011;59154;51.970;5.650;2023-02-28T22:25:02;5.5;;;3.9;;
70942;SDS011;59154;51.970;5.650;2023-02-28T22:30:02;7.1;;;4.8;;
70942;SDS011;59154;51.970;5.650;2023-02-28T22:35:02;5.4;;;3.9;;
70942;SDS011;59154;51.970;5.650;2023-02-28T22:40:04;4.0;;;3.5;;
70942;SDS011;59154;51.970;5.650;2023-02-28T22:45:02;6.3;;;3.6;;
70942;SDS011;59154;51.970;5.650;2023-02-28T22:50:03;4.8;;;3.1;;
70942;SDS011;59154;51.970;5.650;2023-02-28T22:55:02;4.4;;;3.1;;
70942;SDS011;59154;51.970;5.650;2023-02-28T23:00:04;5.2;;;3.3;;
70942;SDS011;59154;51.970;5.650;2023-02-28T23:05:02;4.8;;;3.2;;
70942;SDS011;59154;51.970;5.650;2023-02-28T23:10:03;4.1;;;3.1;;
70942;SDS011;59154;51.970;5.650;2023-02-28T23:15:02;6.9;;;4.0;;
70942;SDS011;59154;51.970;5.650;2023-02-28T23:20:03;6.9;;;3.3;;
70942;SDS011;59154;51.970;5.650;2023-02-28T23:25:02;5.8;;;4.1;;
70942;SDS011;59154;51.970;5.650;2023-02-28T23:30:03;6.3;;;4.6;;
70942;SDS011;59154;51.970;5.650;2023-02-28T23:35:02;5.9;;;4.6;;
70942;SDS011;59154;51.970;5.650;2023-02-28T23:40:04;6.1;;;4.1;;
70942;SDS011;59154;51.970;5.650;2023-02-28T23:45:02;6.7;;;4.5;;
70942;SDS011;59154;51.970;5.650;2023-02-28T23:50:03;6.4;;;4.7;;
70942;SDS011;59154;51.970;5.650;2023-02-28T23:55:02;7.6;;;4.2;;
